createdAt,value
2018-10-17T00:02:08.228Z,10.30
2018-10-17T00:04:37.320Z,13.17
2018-10-17T00:07:06.411Z,10.70
2018-10-17T00:09:35.516Z,10.40
2018-10-17T00:12:05.460Z,13.25
2018-10-17T00:14:35.533Z,11.68
2018-10-17T00:17:06.718Z,15.24
2018-10-17T00:19:35.855Z,11.07
2018-10-17T00:22:05.178Z,13.03
2018-10-17T00:24:35.105Z,10.33
2018-10-17T00:27:04.198Z,13.60
2018-10-17T00:29:33.339Z,12.23
2018-10-17T00:32:02.475Z,11.53
2018-10-17T00:34:31.577Z,14.30
2018-10-17T00:37:00.663Z,12.70
2018-10-17T00:39:29.682Z,13.00
2018-10-17T00:41:58.880Z,15.43
2018-10-17T00:44:27.951Z,14.05
2018-10-17T00:46:57.014Z,11.90
2018-10-17T00:49:26.024Z,15.23
2018-10-17T00:51:55.041Z,12.23
2018-10-17T00:54:24.082Z,14.17
2018-10-17T00:56:53.173Z,11.50
2018-10-17T00:59:22.244Z,12.60
2018-10-17T01:01:51.717Z,13.90
2018-10-17T01:04:21.545Z,11.70
2018-10-17T01:06:51.896Z,9.73
2018-10-17T01:09:21.897Z,12.20
2018-10-17T01:11:51.626Z,14.37
2018-10-17T01:14:20.828Z,11.83
2018-10-17T01:16:50.328Z,18.87
2018-10-17T01:19:19.546Z,13.50
2018-10-17T01:21:48.647Z,13.85
2018-10-17T01:24:17.705Z,10.30
2018-10-17T01:26:46.832Z,11.47
2018-10-17T01:29:16.038Z,10.13
2018-10-17T01:31:46.381Z,12.70
2018-10-17T01:34:16.012Z,12.87
2018-10-17T01:36:45.447Z,10.73
2018-10-17T01:39:14.822Z,15.37
2018-10-17T01:41:44.052Z,13.95
2018-10-17T01:44:13.348Z,11.97
2018-10-17T01:46:42.569Z,11.47
2018-10-17T01:49:11.736Z,13.87
2018-10-17T01:51:40.834Z,14.43
2018-10-17T01:54:10.206Z,11.10
2018-10-17T01:56:39.544Z,11.88
2018-10-17T01:59:08.828Z,10.18
2018-10-17T02:01:38.021Z,10.67
2018-10-17T02:04:07.817Z,11.43
2018-10-17T02:06:36.988Z,10.20
2018-10-17T02:09:08.980Z,16.03
2018-10-17T02:11:38.733Z,14.83
2018-10-17T02:14:08.635Z,12.68
2018-10-17T02:16:37.773Z,11.90
2018-10-17T02:19:07.835Z,12.77
2018-10-17T02:21:36.952Z,10.55
2018-10-17T02:24:07.644Z,11.93
2018-10-17T02:26:36.943Z,9.60
2018-10-17T02:29:06.692Z,9.87
2018-10-17T02:31:36.348Z,10.20
2018-10-17T02:34:05.591Z,11.30
2018-10-17T02:36:34.796Z,17.07
2018-10-17T02:39:05.244Z,9.68
2018-10-17T02:41:34.336Z,10.97
2018-10-17T02:44:04.227Z,10.37
2018-10-17T02:46:33.304Z,15.45
2018-10-17T02:49:02.666Z,10.20
2018-10-17T02:51:31.823Z,12.90
2018-10-17T02:54:01.321Z,23.07
2018-10-17T02:56:30.486Z,11.50
2018-10-17T02:58:59.640Z,12.33
2018-10-17T03:01:29.142Z,12.10
2018-10-17T03:03:59.199Z,12.00
2018-10-17T03:06:29.166Z,11.90
2018-10-17T03:08:58.642Z,9.73
2018-10-17T03:11:27.990Z,11.50
2018-10-17T03:13:57.308Z,12.90
2018-10-17T03:16:26.381Z,11.67
2018-10-17T03:18:55.848Z,13.00
2018-10-17T03:21:24.867Z,12.10
2018-10-17T03:23:54.059Z,11.80
2018-10-17T03:26:23.672Z,13.97
2018-10-17T03:28:53.095Z,11.77
2018-10-17T03:31:22.564Z,10.70
2018-10-17T03:33:51.586Z,11.77
2018-10-17T03:36:21.259Z,12.23
2018-10-17T03:38:50.941Z,14.45
2018-10-17T03:41:20.101Z,11.07
2018-10-17T03:43:49.375Z,11.67
2018-10-17T03:46:18.633Z,14.45
2018-10-17T03:48:47.893Z,13.48
2018-10-17T03:51:18.341Z,12.82
2018-10-17T03:53:47.534Z,11.97
2018-10-17T03:56:16.764Z,12.13
2018-10-17T03:58:47.668Z,12.17
2018-10-17T04:01:17.314Z,13.40
2018-10-17T04:03:46.481Z,13.50
2018-10-17T04:06:16.953Z,11.97
2018-10-17T04:08:46.840Z,16.07
2018-10-17T04:11:16.856Z,16.40
2018-10-17T04:13:45.975Z,13.10
2018-10-17T04:16:15.229Z,12.10
2018-10-17T04:18:44.503Z,18.42
2018-10-17T04:21:13.770Z,15.23
2018-10-17T04:23:43.379Z,14.10
2018-10-17T04:26:12.681Z,17.55
2018-10-17T04:28:41.913Z,16.07
2018-10-17T04:31:11.881Z,13.60
2018-10-17T04:33:41.374Z,14.00
2018-10-17T04:36:10.857Z,16.00
2018-10-17T04:38:40.286Z,14.00
2018-10-17T04:41:09.767Z,13.70
2018-10-17T04:43:40.024Z,13.97
2018-10-17T04:46:09.155Z,14.67
2018-10-17T04:48:38.840Z,13.90
2018-10-17T04:51:09.688Z,14.23
2018-10-17T04:53:38.935Z,14.53
2018-10-17T04:56:09.047Z,12.90
2018-10-17T04:58:38.572Z,15.68
2018-10-17T05:01:08.325Z,17.30
2018-10-17T05:03:37.569Z,12.87
2018-10-17T05:06:06.885Z,18.03
2018-10-17T05:08:36.108Z,14.17
2018-10-17T05:11:06.019Z,15.17
2018-10-17T05:13:35.365Z,15.90
2018-10-17T05:16:04.706Z,12.45
2018-10-17T05:18:34.226Z,18.13
2018-10-17T05:21:03.501Z,12.88
2018-10-17T05:23:33.386Z,15.97
2018-10-17T05:26:03.299Z,18.90
2018-10-17T05:28:34.235Z,16.90
2018-10-17T05:31:04.955Z,15.40
2018-10-17T05:33:34.254Z,14.00
2018-10-17T05:36:03.570Z,17.27
2018-10-17T05:38:32.884Z,14.27
2018-10-17T05:41:02.093Z,17.85
2018-10-17T05:43:31.422Z,16.00
2018-10-17T05:46:00.675Z,16.87
2018-10-17T05:48:29.823Z,15.80
2018-10-17T05:50:59.171Z,16.73
2018-10-17T05:53:28.284Z,14.20
2018-10-17T05:55:57.579Z,16.42
2018-10-17T05:58:27.199Z,20.53
2018-10-17T06:00:57.346Z,18.10
2018-10-17T06:03:26.841Z,19.57
2018-10-17T06:05:56.464Z,17.23
2018-10-17T06:08:26.519Z,17.53
2018-10-17T06:10:55.930Z,19.87
2018-10-17T06:13:25.457Z,20.93
2018-10-17T06:15:54.641Z,20.23
2018-10-17T06:18:24.159Z,24.80
2018-10-17T06:20:53.562Z,23.13
2018-10-17T06:23:22.802Z,21.53
2018-10-17T06:25:52.637Z,18.60
2018-10-17T06:28:22.026Z,20.90
2018-10-17T06:30:51.304Z,19.77
2018-10-17T06:33:20.600Z,20.87
2018-10-17T06:35:50.456Z,19.37
2018-10-17T06:38:19.914Z,20.03
2018-10-17T06:40:49.185Z,21.33
2018-10-17T06:43:18.299Z,30.60
2018-10-17T06:45:47.648Z,27.35
2018-10-17T06:48:16.968Z,22.50
2018-10-17T06:50:46.233Z,17.60
2018-10-17T06:53:15.592Z,18.53
2018-10-17T06:55:44.984Z,19.80
2018-10-17T06:58:15.070Z,20.08
2018-10-17T07:00:44.338Z,17.17
2018-10-17T07:03:14.200Z,20.93
2018-10-17T07:10:40.835Z,20.37
2018-10-17T07:13:10.025Z,16.85
2018-10-17T07:15:39.679Z,19.12
2018-10-17T07:18:08.823Z,19.40
2018-10-17T07:20:39.483Z,14.78
2018-10-17T07:23:08.689Z,24.50
2018-10-17T07:25:37.789Z,23.07
2018-10-17T07:28:07.204Z,17.97
2018-10-17T07:30:38.135Z,21.12
2018-10-17T07:33:07.344Z,19.00
2018-10-17T07:35:36.627Z,16.65
2018-10-17T07:38:05.979Z,13.08
2018-10-17T07:40:35.269Z,14.00
2018-10-17T07:43:04.733Z,16.77
2018-10-17T07:45:34.101Z,13.73
2018-10-17T07:48:03.427Z,20.77
2018-10-17T07:50:32.697Z,18.50
2018-10-17T07:53:01.842Z,26.27
2018-10-17T07:55:31.518Z,18.47
2018-10-17T07:58:01.268Z,15.47
2018-10-17T08:00:30.491Z,20.05
2018-10-17T08:03:01.136Z,19.67
2018-10-17T08:05:31.187Z,18.40
2018-10-17T08:08:00.324Z,22.37
2018-10-17T08:10:29.449Z,16.90
2018-10-17T08:12:58.719Z,20.57
2018-10-17T08:15:28.231Z,18.20
2018-10-17T08:17:57.532Z,19.50
2018-10-17T08:20:27.981Z,16.52
2018-10-17T08:22:57.361Z,16.53
2018-10-17T08:25:26.708Z,18.80
2018-10-17T08:27:55.955Z,22.02
2018-10-17T08:30:25.292Z,20.43
2018-10-17T08:32:54.744Z,18.23
2018-10-17T08:35:24.245Z,23.83
2018-10-17T08:37:53.751Z,15.93
2018-10-17T08:40:22.680Z,13.57
2018-10-17T08:42:52.050Z,14.93
2018-10-17T08:45:21.341Z,15.50
2018-10-17T08:47:50.555Z,19.47
2018-10-17T08:50:19.983Z,17.90
2018-10-17T08:52:49.265Z,15.00
2018-10-17T08:55:18.708Z,12.30
2018-10-17T08:57:48.282Z,15.20
2018-10-17T09:00:17.650Z,13.87
2018-10-17T09:02:47.343Z,11.37
2018-10-17T09:05:16.878Z,11.20
2018-10-17T09:07:46.326Z,13.10
2018-10-17T09:10:16.912Z,12.83
2018-10-17T09:12:46.263Z,14.43
2018-10-17T09:15:15.793Z,16.70
2018-10-17T09:17:45.158Z,16.75
2018-10-17T09:20:15.215Z,13.73
2018-10-17T09:22:44.258Z,13.47
2018-10-17T09:25:13.778Z,12.75
2018-10-17T09:27:43.610Z,16.07
2018-10-17T09:30:13.516Z,16.53
2018-10-17T09:32:43.041Z,12.93
2018-10-17T09:35:13.128Z,16.47
2018-10-17T09:37:42.949Z,13.83
2018-10-17T09:40:12.832Z,15.10
2018-10-17T09:42:42.513Z,13.13
2018-10-17T09:45:12.292Z,13.25
2018-10-17T09:47:41.755Z,13.35
2018-10-17T09:50:11.583Z,28.23
2018-10-17T09:52:41.652Z,14.13
2018-10-17T09:55:11.135Z,15.23
2018-10-17T09:57:40.380Z,15.27
2018-10-17T10:00:15.003Z,19.13
2018-10-17T10:02:44.094Z,18.45
2018-10-17T10:05:13.592Z,16.52
2018-10-17T10:07:43.241Z,23.17
2018-10-17T10:10:12.769Z,17.00
2018-10-17T10:12:42.497Z,17.77
2018-10-17T10:15:12.981Z,15.83
2018-10-17T10:17:42.663Z,15.40
2018-10-17T10:20:13.147Z,18.37
2018-10-17T10:22:42.433Z,15.85
2018-10-17T10:25:11.969Z,15.53
2018-10-17T10:27:41.388Z,16.23
2018-10-17T10:30:11.896Z,18.33
2018-10-17T10:32:41.287Z,15.90
2018-10-17T10:35:10.667Z,17.33
2018-10-17T10:37:40.674Z,17.53
2018-10-17T10:40:10.308Z,15.98
2018-10-17T10:42:39.595Z,16.10
2018-10-17T10:45:08.868Z,15.73
2018-10-17T10:47:38.206Z,21.10
2018-10-17T10:50:09.677Z,16.30
2018-10-17T10:52:39.407Z,17.87
2018-10-17T10:55:08.735Z,17.45
2018-10-17T10:57:38.018Z,19.40
2018-10-17T11:00:08.187Z,19.53
2018-10-17T11:02:37.680Z,20.17
2018-10-17T11:05:07.200Z,19.43
2018-10-17T11:07:36.546Z,21.27
2018-10-17T11:10:12.068Z,19.40
2018-10-17T11:12:42.573Z,16.93
2018-10-17T11:15:12.368Z,17.82
2018-10-17T11:17:42.362Z,19.05
2018-10-17T11:20:11.937Z,16.90
2018-10-17T11:22:41.389Z,19.33
2018-10-17T11:25:11.099Z,19.30
2018-10-17T11:27:40.265Z,20.50
2018-10-17T11:30:11.386Z,21.97
2018-10-17T11:32:41.052Z,18.07
2018-10-17T11:35:12.477Z,20.73
2018-10-17T11:37:42.809Z,17.48
2018-10-17T11:40:12.191Z,21.17
2018-10-17T11:42:41.740Z,24.13
2018-10-17T11:45:11.451Z,19.50
2018-10-17T11:47:41.815Z,19.10
2018-10-17T11:50:12.142Z,20.12
2018-10-17T11:52:41.568Z,19.80
2018-10-17T11:55:11.479Z,20.85
2018-10-17T11:57:40.725Z,22.53
2018-10-17T12:00:12.395Z,19.80
2018-10-17T12:02:41.927Z,23.83
2018-10-17T12:05:14.294Z,21.47
2018-10-17T12:07:43.943Z,18.33
2018-10-17T12:10:13.201Z,20.33
2018-10-17T12:12:42.932Z,19.77
2018-10-17T12:15:14.213Z,19.57
2018-10-17T12:20:20.874Z,23.13
2018-10-17T12:22:50.273Z,21.33
2018-10-17T12:25:20.096Z,17.80
2018-10-17T12:27:49.582Z,18.82
2018-10-17T12:30:19.217Z,17.93
2018-10-17T12:32:48.561Z,21.17
2018-10-17T12:35:17.879Z,17.93
2018-10-17T12:37:47.399Z,17.77
2018-10-17T12:40:16.953Z,18.15
2018-10-17T12:42:46.194Z,20.90
2018-10-17T12:45:15.711Z,18.63
2018-10-17T12:47:45.298Z,18.23
2018-10-17T12:50:14.656Z,17.93
2018-10-17T12:52:44.165Z,23.50
2018-10-17T12:55:14.204Z,20.67
2018-10-17T12:57:43.553Z,20.25
2018-10-17T13:00:12.983Z,19.50
2018-10-17T13:02:42.284Z,17.43
2018-10-17T13:05:11.828Z,21.43
2018-10-17T13:07:41.812Z,18.90
2018-10-17T13:10:12.129Z,19.97
2018-10-17T13:12:42.410Z,18.23
2018-10-17T13:15:14.240Z,20.95
2018-10-17T13:17:45.678Z,19.73
2018-10-17T13:20:15.606Z,22.73
2018-10-17T13:22:45.078Z,21.20
2018-10-17T13:25:14.676Z,26.50
2018-10-17T13:27:43.739Z,23.45
2018-10-17T13:30:13.096Z,28.70
2018-10-17T13:32:42.762Z,23.42
2018-10-17T13:35:12.549Z,24.95
2018-10-17T13:37:41.728Z,22.20
2018-10-17T13:40:11.913Z,24.50
2018-10-17T13:42:41.044Z,23.20
2018-10-17T13:45:10.373Z,24.43
2018-10-17T13:47:39.950Z,28.20
2018-10-17T13:50:09.175Z,30.15
2018-10-17T13:52:38.570Z,27.85
2018-10-17T13:55:08.546Z,27.07
2018-10-17T13:57:37.832Z,28.30
2018-10-17T14:00:11.037Z,28.90
2018-10-17T14:02:40.636Z,30.73
2018-10-17T14:05:10.269Z,34.27
2018-10-17T14:07:39.613Z,34.57
2018-10-17T14:10:09.055Z,37.83
2018-10-17T14:12:38.279Z,38.35
2018-10-17T14:15:07.486Z,44.53
2018-10-17T14:17:36.606Z,36.63
2018-10-17T14:20:05.826Z,37.93
2018-10-17T14:22:34.938Z,31.83
2018-10-17T14:25:04.235Z,37.83
2018-10-17T14:27:33.512Z,35.50
2018-10-17T14:30:03.082Z,35.10
2018-10-17T14:32:32.578Z,35.07
2018-10-17T14:35:01.938Z,38.28
2018-10-17T14:37:31.187Z,33.57
2018-10-17T14:40:00.672Z,33.07
2018-10-17T14:42:30.124Z,39.33
2018-10-17T14:44:59.594Z,38.07
2018-10-17T14:47:28.761Z,37.90
2018-10-17T14:49:57.852Z,34.83
2018-10-17T14:52:27.070Z,37.93
2018-10-17T14:54:56.351Z,35.50
2018-10-17T14:57:25.654Z,39.70
2018-10-17T14:59:55.082Z,39.47
2018-10-17T15:02:24.378Z,37.47
2018-10-17T15:05:00.311Z,38.80
2018-10-17T15:07:29.497Z,43.78
2018-10-17T15:09:58.745Z,39.88
2018-10-17T15:12:27.842Z,36.40
2018-10-17T15:14:57.009Z,38.10
2018-10-17T15:17:26.287Z,37.97
2018-10-17T15:19:56.437Z,34.15
2018-10-17T15:22:26.071Z,34.70
2018-10-17T15:24:55.337Z,34.30
2018-10-17T15:27:24.517Z,35.37
2018-10-17T15:29:53.900Z,34.55
2018-10-17T15:32:23.099Z,36.20
2018-10-17T15:34:52.213Z,33.92
2018-10-17T15:37:21.518Z,34.50
2018-10-17T15:39:50.659Z,35.10
2018-10-17T15:42:19.898Z,37.00
2018-10-17T15:44:49.161Z,37.77
2018-10-17T15:47:18.807Z,33.50
2018-10-17T15:49:48.153Z,33.48
2018-10-17T15:52:17.430Z,31.13
2018-10-17T15:54:46.764Z,33.38
2018-10-17T15:57:16.293Z,41.10
2018-10-17T15:59:45.547Z,28.80
2018-10-17T16:02:15.017Z,32.90
2018-10-17T16:04:44.485Z,36.87
2018-10-17T16:07:13.933Z,34.85
2018-10-17T16:09:43.259Z,30.05
2018-10-17T16:12:12.602Z,36.43
2018-10-17T16:14:41.960Z,33.77
2018-10-17T16:17:11.207Z,36.50
2018-10-17T16:19:40.449Z,38.50
2018-10-17T16:22:11.080Z,35.03
2018-10-17T16:24:40.275Z,36.30
2018-10-17T16:27:09.424Z,33.53
2018-10-17T16:29:38.911Z,38.33
2018-10-17T16:32:08.304Z,37.87
2018-10-17T16:34:38.094Z,45.63
2018-10-17T16:37:07.148Z,46.10
2018-10-17T16:39:36.263Z,39.10
2018-10-17T16:42:05.974Z,39.93
2018-10-17T16:44:35.092Z,38.33
2018-10-17T16:47:04.612Z,40.10
2018-10-17T16:49:33.930Z,38.83
2018-10-17T16:52:03.053Z,42.20
2018-10-17T16:54:32.472Z,40.00
2018-10-17T16:57:01.713Z,46.83
2018-10-17T16:59:30.983Z,42.00
2018-10-17T17:02:00.144Z,47.95
2018-10-17T17:04:29.423Z,45.33
2018-10-17T17:07:00.038Z,41.53
2018-10-17T17:09:29.201Z,42.50
2018-10-17T17:11:58.282Z,41.67
2018-10-17T17:14:27.565Z,42.07
2018-10-17T17:16:56.701Z,45.52
2018-10-17T17:19:26.593Z,47.48
2018-10-17T17:21:56.139Z,47.40
2018-10-17T17:24:25.368Z,50.57
2018-10-17T17:26:54.554Z,44.27
2018-10-17T17:29:23.736Z,40.37
2018-10-17T17:31:53.144Z,42.93
2018-10-17T17:34:22.603Z,42.90
2018-10-17T17:36:51.857Z,41.48
2018-10-17T17:39:21.285Z,43.73
2018-10-17T17:41:50.372Z,44.05
2018-10-17T17:44:19.673Z,50.47
2018-10-17T17:46:49.229Z,41.30
2018-10-17T17:49:18.647Z,44.60
2018-10-17T17:51:48.520Z,49.25
2018-10-17T17:54:18.271Z,41.43
2018-10-17T17:56:47.568Z,45.40
2018-10-17T18:02:00.259Z,42.30
2018-10-17T18:04:29.710Z,40.77
2018-10-17T18:06:59.440Z,52.97
2018-10-17T18:09:30.512Z,51.60
2018-10-17T18:12:01.210Z,45.73
2018-10-17T18:14:30.253Z,46.50
2018-10-17T18:16:59.555Z,44.47
2018-10-17T18:19:28.756Z,40.83
2018-10-17T18:21:58.518Z,42.90
2018-10-17T18:24:28.186Z,48.17
2018-10-17T18:26:57.373Z,38.60
2018-10-17T18:29:26.780Z,49.57
2018-10-17T18:31:56.878Z,49.57
2018-10-17T18:34:26.269Z,53.15
2018-10-17T18:36:55.421Z,42.30
2018-10-17T18:39:24.739Z,38.83
2018-10-17T18:41:54.225Z,43.70
2018-10-17T18:44:23.736Z,44.63
2018-10-17T18:46:53.221Z,45.33
2018-10-17T18:49:22.844Z,51.20
2018-10-17T18:51:52.580Z,47.60
2018-10-17T18:54:22.072Z,44.38
2018-10-17T18:56:51.607Z,43.53
2018-10-17T18:59:23.876Z,43.33
2018-10-17T19:01:53.967Z,47.83
2018-10-17T19:04:23.193Z,45.03
2018-10-17T19:06:52.549Z,45.30
2018-10-17T19:09:21.734Z,44.43
2018-10-17T19:11:50.967Z,40.10
2018-10-17T19:14:20.124Z,45.27
2018-10-17T19:16:49.237Z,44.53
2018-10-17T19:19:18.658Z,45.83
2018-10-17T19:21:47.878Z,41.90
2018-10-17T19:24:17.859Z,47.00
2018-10-17T19:26:47.133Z,41.17
2018-10-17T19:29:16.364Z,45.77
2018-10-17T19:31:46.051Z,40.95
2018-10-17T19:34:15.814Z,36.87
2018-10-17T19:36:45.414Z,48.10
2018-10-17T19:39:15.590Z,41.77
2018-10-17T19:41:45.537Z,43.98
2018-10-17T19:46:52.231Z,45.77
2018-10-17T19:49:22.281Z,51.70
2018-10-17T19:51:52.456Z,42.77
2018-10-17T19:54:21.733Z,37.30
2018-10-17T19:56:51.311Z,36.77
2018-10-17T19:59:21.681Z,38.10
2018-10-17T20:01:51.200Z,44.10
2018-10-17T20:04:20.845Z,40.53
2018-10-17T20:06:50.020Z,40.10
2018-10-17T20:09:19.369Z,44.57
2018-10-17T20:11:48.677Z,41.37
2018-10-17T20:14:18.233Z,41.30
2018-10-17T20:16:47.280Z,39.03
2018-10-17T20:19:16.691Z,46.37
2018-10-17T20:21:46.633Z,40.07
2018-10-17T20:24:15.945Z,43.50
2018-10-17T20:26:45.208Z,44.43
2018-10-17T20:29:14.934Z,46.35
2018-10-17T20:31:44.286Z,42.13
2018-10-17T20:34:14.883Z,40.13
2018-10-17T20:36:43.991Z,48.80
2018-10-17T20:39:14.708Z,45.20
2018-10-17T20:41:43.961Z,40.93
2018-10-17T20:44:14.258Z,46.37
2018-10-17T20:46:43.458Z,46.60
2018-10-17T20:49:12.726Z,46.90
2018-10-17T20:51:42.502Z,45.00
2018-10-17T20:54:11.698Z,46.25
2018-10-17T20:56:40.767Z,43.93
2018-10-17T20:59:09.832Z,47.10
2018-10-17T21:01:38.948Z,46.18
2018-10-17T21:04:08.061Z,44.83
2018-10-17T21:06:37.307Z,48.83
2018-10-17T21:09:11.389Z,42.13
2018-10-17T21:11:41.109Z,41.08
2018-10-17T21:14:11.476Z,40.50
2018-10-17T21:16:41.670Z,45.27
2018-10-17T21:19:10.958Z,38.73
2018-10-17T21:21:40.380Z,40.78
2018-10-17T21:24:09.994Z,43.53
2018-10-17T21:26:39.229Z,42.75
2018-10-17T21:29:08.296Z,40.40
2018-10-17T21:31:37.507Z,39.70
2018-10-17T21:34:06.768Z,41.33
2018-10-17T21:36:35.968Z,40.40
2018-10-17T21:39:08.987Z,35.10
2018-10-17T21:41:38.117Z,41.65
2018-10-17T21:44:08.331Z,40.70
2018-10-17T21:46:37.445Z,40.93
2018-10-17T21:49:08.020Z,40.23
2018-10-17T21:51:37.161Z,36.38
2018-10-17T21:54:06.705Z,33.50
2018-10-17T21:56:35.905Z,38.50
2018-10-17T21:59:05.640Z,40.50
2018-10-17T22:01:34.716Z,47.85
2018-10-17T22:04:04.092Z,41.35
2018-10-17T22:06:33.216Z,45.20
2018-10-17T22:09:02.331Z,42.33
2018-10-17T22:11:31.895Z,44.07
2018-10-17T22:14:01.392Z,43.53
2018-10-17T22:16:35.829Z,41.53
2018-10-17T22:19:05.198Z,39.97
2018-10-17T22:21:34.275Z,37.90
2018-10-17T22:24:03.368Z,45.05
2018-10-17T22:26:32.564Z,34.93
2018-10-17T22:29:01.860Z,40.10
2018-10-17T22:31:31.217Z,42.87
2018-10-17T22:34:01.128Z,41.67
2018-10-17T22:36:30.335Z,40.00
2018-10-17T22:38:59.456Z,39.33
2018-10-17T22:41:28.565Z,45.87
2018-10-17T22:43:57.651Z,43.70
2018-10-17T22:46:26.905Z,46.73
2018-10-17T22:48:55.993Z,48.40
2018-10-17T22:51:25.056Z,42.87
2018-10-17T22:53:54.132Z,42.53
2018-10-17T22:56:23.276Z,45.33
2018-10-17T22:58:52.618Z,47.70
2018-10-17T23:01:22.096Z,42.87
2018-10-17T23:03:51.216Z,45.90
2018-10-17T23:06:20.351Z,50.73
2018-10-17T23:08:49.398Z,41.30
2018-10-17T23:11:18.541Z,44.20
2018-10-17T23:13:47.662Z,47.07
2018-10-17T23:16:16.771Z,43.67
2018-10-17T23:18:45.901Z,47.07
2018-10-17T23:21:14.997Z,45.63
2018-10-17T23:23:44.203Z,42.27
2018-10-17T23:26:13.403Z,39.63
2018-10-17T23:28:42.559Z,43.23
2018-10-17T23:31:11.712Z,49.20
2018-10-17T23:33:41.212Z,47.37
2018-10-17T23:36:11.646Z,41.77
2018-10-17T23:38:40.737Z,46.87
2018-10-17T23:41:10.851Z,44.80
2018-10-17T23:43:40.785Z,43.50
2018-10-17T23:46:10.818Z,47.60
2018-10-17T23:48:41.202Z,50.75
2018-10-17T23:51:11.063Z,49.10
2018-10-17T23:53:41.104Z,45.97
2018-10-17T23:56:10.387Z,48.70
